Airfield :
LOGIN :

Register | Disclaimer

   EN    FR    IT 

 










Legend :    VFR   Marginal VFR   IFR   Intensive IFR   Very Intensive IFR
Visi :
Ceiling :
>= 8 km
>= 3000ft
5 to 8 km
1000 to 3000 ft
1500m to 5 km
500 to 1000 ft
800 to 1500m
200 to 500 ft
< 800m
< 200 ft
Symbols :   Thunderstorms  Fog  Heavy snow  Heavy precipitations  Wind > 20 kt
SIGMETs :     Misc.  Thunderstorms  Icing  Turbulence  Mountain Waves  Volcanic Ashes







- Airport Elevation : 622 ft
- IATA code : BRS
- Download approach charts


EGGD - Bristol Int.

CURRENT METAR :
  • 210220Z AUTO 19015KT 9999 BKN008/// BKN011/// //////CB 12/12 Q0999

EXPIRED METARs :
  • 210150Z AUTO 19012KT 9999 -RA BKN010/// BKN024/// //////TCU 12/12 Q0999
  • 210120Z AUTO 19013KT 160V220 9999 BKN013 13/11 Q0999
  • 210050Z AUTO 19011KT 160V230 9999 BKN015 13/11 Q1000
  • 210020Z AUTO 19011KT 9999 FEW018 12/11 Q1000
  • 202350Z AUTO 21013KT 9999 NCD 13/11 Q1000

TAF TAF EGGD
Valid from the 21 at 00:00 until the 22 at 00:00 UTC


202300Z 2100/2124 22014KT 9999 SCT018
TEMPO 2100/2106 19015G25KT
TEMPO 2101/2124 5000 SHRA BKN010
PROB40
TEMPO 2104/2106 19020G35KT
BECMG 2106/2109 23020G33KT
TEMPO 2109/2118 24026G45KT
PROB40
TEMPO 2110/2117 2500 +SHRA BKN006 BKN015CB
ATIS : +44 1275 473 666
No reported NOTAMs for that airfield.
1 SIGMET reported for the London FIR (EGTT) :
 
Severe turbulence
EGTT SIGMET 01 VALID 210200/210600 EGRR
EGTT LONDON FIR SEV TURB FCST WI N4850 W00800 - N5100 W00800 - N5220 W00530 - N5340 W00530 - N5340 W00400 - N4937 W00400 - N4850 W00800 SFC/FL060 MOV E 20KT NC=



MET'MAP, your aeronautical weather chart ! - Copyright ORBIFLY December 2007 - Disclaimer

ORBIFLY MET'MAP TEAM :

Programming & Development : Alexandra Zaïnal
Concept & Development : Baudouin d'Aumeries
Co-Development & Prog : Marc-Olivier Méhu
Technical & hardware support : Manuel Goepfert

Contact : metmap@orbifly.com




SOURCES & CREDITS :

   NOAA